createdAt,value
2022-10-19T00:02:17.974Z,101215.13
2022-10-19T00:07:20.225Z,101195.84
2022-10-19T00:12:22.425Z,101207.22
2022-10-19T00:17:24.878Z,101199.34
2022-10-19T00:22:27.266Z,101188.97
2022-10-19T00:27:29.525Z,101193.81
2022-10-19T00:32:32.065Z,101177.75
2022-10-19T00:37:34.552Z,101171.06
2022-10-19T00:42:36.759Z,101133.03
2022-10-19T00:47:39.507Z,101135.00
2022-10-19T00:52:42.459Z,101139.22
2022-10-19T00:57:44.826Z,101133.38
2022-10-19T01:02:47.246Z,101115.44
2022-10-19T01:07:50.108Z,101122.59
2022-10-19T01:13:10.601Z,101126.28
2022-10-19T01:18:26.059Z,101117.91
2022-10-19T01:24:05.763Z,101120.94
2022-10-19T01:29:26.185Z,101119.47
2022-10-19T01:34:31.226Z,101112.16
2022-10-19T01:39:49.094Z,101086.66
2022-10-19T01:45:04.597Z,101100.56
2022-10-19T01:50:13.844Z,101089.66
2022-10-19T01:55:18.277Z,101070.25
2022-10-19T02:00:23.535Z,101076.97
2022-10-19T02:05:31.205Z,101064.22
2022-10-19T02:10:38.073Z,101053.19
2022-10-19T02:15:43.474Z,101069.09
2022-10-19T02:20:46.765Z,101050.50
2022-10-19T02:25:49.276Z,101046.94
2022-10-19T02:30:51.821Z,101060.53
2022-10-19T02:35:54.227Z,101057.38
2022-10-19T02:41:12.033Z,101080.00
2022-10-19T02:46:44.377Z,101060.75
2022-10-19T02:52:01.675Z,101067.78
2022-10-19T02:57:27.619Z,101066.59
2022-10-19T03:02:29.977Z,101071.47
2022-10-19T03:07:32.539Z,101056.03
2022-10-19T03:12:35.202Z,101064.22
2022-10-19T03:17:37.441Z,101041.97
2022-10-19T03:22:39.884Z,101053.84
2022-10-19T03:27:42.142Z,101058.53
2022-10-19T03:32:44.538Z,101063.41
2022-10-19T03:37:46.734Z,101029.75
2022-10-19T03:42:49.172Z,101044.47
2022-10-19T03:47:52.314Z,101037.63
2022-10-19T03:52:55.891Z,101020.03
2022-10-19T03:57:58.685Z,100997.06
2022-10-19T04:03:01.013Z,101020.84
2022-10-19T04:08:03.164Z,101006.94
2022-10-19T04:13:05.453Z,101013.63
2022-10-19T04:18:07.666Z,101026.19
2022-10-19T04:23:10.035Z,101022.50
2022-10-19T04:28:12.363Z,101008.78
2022-10-19T04:33:14.618Z,100983.16
2022-10-19T04:38:17.001Z,101001.94
2022-10-19T04:43:19.364Z,101011.13
2022-10-19T04:48:21.731Z,100990.69
2022-10-19T04:58:32.232Z,101016.66
2022-10-19T05:03:34.585Z,100992.38
2022-10-19T05:08:37.979Z,101007.09
2022-10-19T05:13:41.243Z,100998.41
2022-10-19T05:18:43.434Z,101013.16
2022-10-19T05:23:46.231Z,101003.44
2022-10-19T05:28:57.145Z,101007.44
2022-10-19T05:33:59.941Z,101009.63
2022-10-19T05:39:14.860Z,101018.34
2022-10-19T05:44:22.798Z,100987.03
2022-10-19T05:49:25.040Z,101016.84
2022-10-19T05:54:28.597Z,101013.66
2022-10-19T05:59:31.557Z,101014.47
2022-10-19T06:04:34.301Z,101002.22
2022-10-19T06:09:37.690Z,101008.38
2022-10-19T06:14:39.927Z,101005.50
2022-10-19T06:19:42.307Z,101024.25
2022-10-19T06:24:44.616Z,101029.22
2022-10-19T06:29:46.934Z,101037.84
2022-10-19T06:34:50.839Z,101034.94
2022-10-19T06:39:55.424Z,101040.69
2022-10-19T06:44:57.631Z,101041.59
2022-10-19T06:49:59.811Z,101025.78
2022-10-19T06:55:02.957Z,101037.06
2022-10-19T07:00:09.340Z,101038.00
2022-10-19T07:05:11.941Z,101035.69
2022-10-19T07:10:14.363Z,101051.94
2022-10-19T07:15:16.814Z,101034.78
2022-10-19T07:20:19.410Z,101042.97
2022-10-19T07:25:21.872Z,101048.25
2022-10-19T07:30:24.412Z,101019.72
2022-10-19T07:40:52.608Z,101012.84
2022-10-19T07:46:03.041Z,101025.59
2022-10-19T07:51:07.403Z,101028.41
2022-10-19T07:56:12.430Z,100979.16
2022-10-19T08:01:16.452Z,101019.34
2022-10-19T08:06:22.050Z,101006.31
2022-10-19T08:11:33.479Z,101017.72
2022-10-19T08:16:40.949Z,101000.75
2022-10-19T08:21:47.703Z,101009.75
2022-10-19T08:26:51.807Z,100977.88
2022-10-19T08:31:54.273Z,101001.47
2022-10-19T08:36:56.619Z,101011.34
2022-10-19T08:42:14.969Z,101011.41
2022-10-19T08:47:54.585Z,101001.09
2022-10-19T08:53:03.005Z,100986.34
2022-10-19T08:58:21.171Z,100975.53
2022-10-19T09:03:54.313Z,100984.31
2022-10-19T09:08:58.459Z,100986.78
2022-10-19T09:14:30.887Z,100987.34
2022-10-19T09:19:33.263Z,100982.28
2022-10-19T09:25:18.493Z,100970.38
2022-10-19T09:30:23.818Z,100968.50
2022-10-19T09:35:31.095Z,100962.63
2022-10-19T09:40:35.350Z,100947.56
2022-10-19T09:45:43.478Z,100939.72
2022-10-19T09:50:46.670Z,100929.84
2022-10-19T09:55:57.889Z,100916.91
2022-10-19T10:01:01.916Z,100912.38
2022-10-19T10:06:07.938Z,100909.09
2022-10-19T10:11:15.833Z,100888.06
2022-10-19T10:16:21.854Z,100869.16
2022-10-19T10:21:35.097Z,100886.41
2022-10-19T10:26:43.174Z,100858.13
2022-10-19T10:31:46.938Z,100855.97
2022-10-19T10:36:52.348Z,100851.66
2022-10-19T10:41:56.242Z,100857.13
2022-10-19T10:47:01.065Z,100843.00
2022-10-19T10:52:18.624Z,100824.19
2022-10-19T11:02:58.845Z,100811.84
2022-10-19T11:08:31.224Z,100813.50
2022-10-19T11:13:42.069Z,100805.03
2022-10-19T11:18:49.351Z,100793.66
2022-10-19T11:24:12.315Z,100775.16
2022-10-19T11:29:51.496Z,100772.31
2022-10-19T11:40:29.718Z,100747.13
2022-10-19T11:45:31.891Z,100747.91
2022-10-19T11:50:58.857Z,100729.56
2022-10-19T11:57:01.625Z,100723.44
2022-10-19T12:02:41.944Z,100702.78
2022-10-19T12:08:08.194Z,100712.13
2022-10-19T12:13:15.349Z,100693.38
2022-10-19T12:18:41.687Z,100692.63
2022-10-19T12:23:47.318Z,100698.25
2022-10-19T12:28:53.061Z,100693.66
2022-10-19T12:34:19.688Z,100688.41
2022-10-19T12:39:39.712Z,100688.31
2022-10-19T12:45:10.706Z,100660.84
2022-10-19T12:50:12.962Z,100673.06
2022-10-19T12:55:26.583Z,100679.44
2022-10-19T13:00:35.439Z,100656.97
2022-10-19T13:05:37.647Z,100659.81
2022-10-19T13:10:39.969Z,100656.53
2022-10-19T13:15:42.127Z,100650.56
2022-10-19T13:20:54.226Z,100647.53
2022-10-19T13:26:30.403Z,100638.78
2022-10-19T13:31:33.531Z,100623.31
2022-10-19T13:36:39.670Z,100613.53
2022-10-19T13:41:47.727Z,100633.19
2022-10-19T13:47:06.728Z,100610.00
2022-10-19T13:52:27.457Z,100628.19
2022-10-19T13:57:56.103Z,100618.97
2022-10-19T14:03:22.949Z,100627.81
2022-10-19T14:08:46.436Z,100620.69
2022-10-19T14:14:15.736Z,100604.03
2022-10-19T14:19:32.807Z,100597.78
2022-10-19T14:24:36.845Z,100603.88
2022-10-19T14:29:50.617Z,100591.56
2022-10-19T14:34:53.555Z,100577.06
2022-10-19T14:40:01.751Z,100578.16
2022-10-19T14:45:05.580Z,100580.91
2022-10-19T14:50:12.191Z,100572.13
2022-10-19T14:55:18.507Z,100564.44
2022-10-19T15:00:23.531Z,100573.75
2022-10-19T15:05:31.112Z,100574.19
2022-10-19T15:10:46.102Z,100562.72
2022-10-19T15:15:52.487Z,100577.03
2022-10-19T15:21:13.034Z,100559.75
2022-10-19T15:26:27.138Z,100571.34
2022-10-19T15:31:30.279Z,100552.19
2022-10-19T15:36:33.573Z,100568.91
2022-10-19T15:41:38.635Z,100574.28
2022-10-19T15:46:49.917Z,100569.06
2022-10-19T15:51:52.373Z,100552.28
2022-10-19T15:56:56.774Z,100559.22
2022-10-19T16:01:59.049Z,100564.84
2022-10-19T16:07:02.343Z,100587.06
2022-10-19T16:12:04.623Z,100604.75
2022-10-19T16:17:06.979Z,100601.34
2022-10-19T16:22:09.329Z,100602.00
2022-10-19T16:27:15.426Z,100603.94
2022-10-19T16:32:17.609Z,100612.09
2022-10-19T16:37:19.791Z,100598.69
2022-10-19T16:42:23.751Z,100610.84
2022-10-19T16:47:27.922Z,100626.41
2022-10-19T16:52:32.321Z,100638.78
2022-10-19T16:57:34.842Z,100634.28
2022-10-19T17:02:39.881Z,100652.59
2022-10-19T17:07:45.415Z,100653.25
2022-10-19T17:12:47.992Z,100652.59
2022-10-19T17:17:50.219Z,100656.16
2022-10-19T17:22:52.685Z,100650.53
2022-10-19T17:27:55.012Z,100661.69
2022-10-19T17:32:57.364Z,100650.03
2022-10-19T17:38:00.097Z,100675.41
2022-10-19T17:43:02.286Z,100666.66
2022-10-19T17:48:05.487Z,100678.78
2022-10-19T17:53:07.816Z,100674.00
2022-10-19T17:58:09.997Z,100694.41
2022-10-19T18:03:12.315Z,100684.53
2022-10-19T18:08:14.687Z,100688.78
2022-10-19T18:13:16.863Z,100680.88
2022-10-19T18:18:19.956Z,100702.47
2022-10-19T18:23:22.210Z,100674.59
2022-10-19T18:28:24.362Z,100712.22
2022-10-19T18:33:30.220Z,100699.47
2022-10-19T18:38:35.297Z,100717.38
2022-10-19T18:43:37.928Z,100708.25
2022-10-19T18:48:40.162Z,100695.81
2022-10-19T18:53:44.000Z,100715.84
2022-10-19T18:58:47.467Z,100716.66
2022-10-19T19:03:50.830Z,100722.50
2022-10-19T19:08:57.469Z,100736.03
2022-10-19T19:14:02.209Z,100744.97
2022-10-19T19:19:06.092Z,100742.28
2022-10-19T19:24:08.979Z,100732.09
2022-10-19T19:29:11.508Z,100755.38
2022-10-19T19:34:14.199Z,100743.06
2022-10-19T19:39:19.893Z,100760.34
2022-10-19T19:44:22.187Z,100730.41
2022-10-19T19:49:25.373Z,100759.94
2022-10-19T19:54:27.736Z,100761.94
2022-10-19T19:59:30.750Z,100758.63
2022-10-19T20:04:33.165Z,100772.13
2022-10-19T20:09:35.588Z,100759.00
2022-10-19T20:14:37.990Z,100780.19
2022-10-19T20:19:40.546Z,100768.53
2022-10-19T20:24:42.920Z,100765.16
2022-10-19T20:29:45.265Z,100754.97
2022-10-19T20:34:47.840Z,100759.31
2022-10-19T20:39:50.740Z,100763.25
2022-10-19T20:44:55.198Z,100775.44
2022-10-19T20:49:57.609Z,100785.78
2022-10-19T20:55:00.021Z,100782.97
2022-10-19T21:00:02.411Z,100775.88
2022-10-19T21:05:04.948Z,100743.59
2022-10-19T21:10:07.496Z,100780.97
2022-10-19T21:15:10.314Z,100797.81
2022-10-19T21:20:12.519Z,100768.59
2022-10-19T21:25:14.962Z,100788.72
2022-10-19T21:30:17.219Z,100795.38
2022-10-19T21:35:19.552Z,100803.06
2022-10-19T21:40:21.722Z,100778.78
2022-10-19T21:45:30.490Z,100793.97
2022-10-19T21:50:33.395Z,100784.75
2022-10-19T21:55:36.644Z,100796.28
2022-10-19T22:00:39.249Z,100810.72
2022-10-19T22:05:50.655Z,100802.00
2022-10-19T22:10:53.604Z,100809.16
2022-10-19T22:15:55.981Z,100795.97
2022-10-19T22:20:58.318Z,100794.75
2022-10-19T22:26:00.927Z,100827.06
2022-10-19T22:31:03.105Z,100809.56
2022-10-19T22:36:07.990Z,100821.75
2022-10-19T22:42:06.605Z,100823.25
2022-10-19T22:48:05.050Z,100817.50
2022-10-19T22:53:07.210Z,100826.47
2022-10-19T22:58:12.881Z,100816.50
2022-10-19T23:03:15.232Z,100804.03
2022-10-19T23:08:17.371Z,100766.19
2022-10-19T23:13:19.602Z,100799.81
2022-10-19T23:18:22.012Z,100816.81
2022-10-19T23:23:24.561Z,100804.94
2022-10-19T23:28:27.152Z,100797.44
2022-10-19T23:33:29.302Z,100786.72
2022-10-19T23:38:31.494Z,100786.72
2022-10-19T23:43:33.926Z,100823.56
2022-10-19T23:48:36.773Z,100819.69
2022-10-19T23:53:41.669Z,100826.84
2022-10-19T23:58:44.390Z,100848.84
